sensor_id;sensor_type;location;lat;lon;timestamp;P1;durP1;ratioP1;P2;durP2;ratioP2
62844;SDS011;48929;47.910;20.390;2022-08-25T00:01:28;10.35;;;4.90;;
62844;SDS011;48929;47.910;20.390;2022-08-25T00:03:58;9.68;;;4.50;;
62844;SDS011;48929;47.910;20.390;2022-08-25T00:06:27;9.50;;;4.30;;
62844;SDS011;48929;47.910;20.390;2022-08-25T00:08:55;9.20;;;4.60;;
62844;SDS011;48929;47.910;20.390;2022-08-25T00:11:26;6.85;;;4.28;;
62844;SDS011;48929;47.910;20.390;2022-08-25T00:13:57;10.90;;;4.93;;
62844;SDS011;48929;47.910;20.390;2022-08-25T00:16:26;6.75;;;4.65;;
62844;SDS011;48929;47.910;20.390;2022-08-25T00:18:57;9.38;;;4.72;;
62844;SDS011;48929;47.910;20.390;2022-08-25T00:21:26;7.55;;;4.80;;
62844;SDS011;48929;47.910;20.390;2022-08-25T00:23:54;8.38;;;4.57;;
62844;SDS011;48929;47.910;20.390;2022-08-25T00:26:22;5.97;;;4.70;;
62844;SDS011;48929;47.910;20.390;2022-08-25T00:28:51;7.82;;;4.53;;
62844;SDS011;48929;47.910;20.390;2022-08-25T00:31:29;6.75;;;4.55;;
62844;SDS011;48929;47.910;20.390;2022-08-25T00:34:05;8.00;;;4.72;;
62844;SDS011;48929;47.910;20.390;2022-08-25T00:36:34;7.82;;;4.97;;
62844;SDS011;48929;47.910;20.390;2022-08-25T00:39:02;7.78;;;4.90;;
62844;SDS011;48929;47.910;20.390;2022-08-25T00:41:30;6.47;;;4.78;;
62844;SDS011;48929;47.910;20.390;2022-08-25T00:44:02;10.23;;;5.10;;
62844;SDS011;48929;47.910;20.390;2022-08-25T00:46:32;11.48;;;5.53;;
62844;SDS011;48929;47.910;20.390;2022-08-25T00:49:02;6.78;;;4.90;;
62844;SDS011;48929;47.910;20.390;2022-08-25T00:51:32;8.90;;;4.90;;
62844;SDS011;48929;47.910;20.390;2022-08-25T00:54:01;6.78;;;4.57;;
62844;SDS011;48929;47.910;20.390;2022-08-25T00:56:30;9.38;;;5.18;;
62844;SDS011;48929;47.910;20.390;2022-08-25T00:58:58;8.02;;;5.22;;
62844;SDS011;48929;47.910;20.390;2022-08-25T01:01:26;7.07;;;4.65;;
62844;SDS011;48929;47.910;20.390;2022-08-25T01:03:57;8.63;;;5.00;;
62844;SDS011;48929;47.910;20.390;2022-08-25T01:06:26;10.50;;;5.20;;
62844;SDS011;48929;47.910;20.390;2022-08-25T01:08:55;7.15;;;5.13;;
62844;SDS011;48929;47.910;20.390;2022-08-25T01:11:23;8.93;;;5.50;;
62844;SDS011;48929;47.910;20.390;2022-08-25T01:13:54;7.22;;;5.30;;
62844;SDS011;48929;47.910;20.390;2022-08-25T01:16:24;8.90;;;5.10;;
62844;SDS011;48929;47.910;20.390;2022-08-25T01:18:53;7.78;;;4.93;;
62844;SDS011;48929;47.910;20.390;2022-08-25T01:21:24;8.02;;;5.03;;
62844;SDS011;48929;47.910;20.390;2022-08-25T01:23:52;8.88;;;5.00;;
62844;SDS011;48929;47.910;20.390;2022-08-25T01:26:22;9.25;;;4.78;;
62844;SDS011;48929;47.910;20.390;2022-08-25T01:28:56;8.82;;;4.97;;
62844;SDS011;48929;47.910;20.390;2022-08-25T01:31:43;5.47;;;4.60;;
62844;SDS011;48929;47.910;20.390;2022-08-25T01:34:12;9.32;;;5.30;;
62844;SDS011;48929;47.910;20.390;2022-08-25T01:36:42;7.63;;;4.78;;
62844;SDS011;48929;47.910;20.390;2022-08-25T01:39:10;7.28;;;4.82;;
62844;SDS011;48929;47.910;20.390;2022-08-25T01:41:40;9.25;;;5.10;;
62844;SDS011;48929;47.910;20.390;2022-08-25T01:44:12;9.77;;;5.30;;
62844;SDS011;48929;47.910;20.390;2022-08-25T01:46:42;7.95;;;5.32;;
62844;SDS011;48929;47.910;20.390;2022-08-25T01:49:10;8.02;;;5.07;;
62844;SDS011;48929;47.910;20.390;2022-08-25T01:51:41;7.70;;;5.22;;
62844;SDS011;48929;47.910;20.390;2022-08-25T01:54:11;7.72;;;5.22;;
62844;SDS011;48929;47.910;20.390;2022-08-25T01:56:39;8.25;;;5.43;;
62844;SDS011;48929;47.910;20.390;2022-08-25T01:59:08;9.68;;;5.40;;
62844;SDS011;48929;47.910;20.390;2022-08-25T02:01:36;8.45;;;5.18;;
62844;SDS011;48929;47.910;20.390;2022-08-25T02:04:04;7.80;;;4.85;;
62844;SDS011;48929;47.910;20.390;2022-08-25T02:06:33;8.35;;;5.07;;
62844;SDS011;48929;47.910;20.390;2022-08-25T02:09:03;9.63;;;5.45;;
62844;SDS011;48929;47.910;20.390;2022-08-25T02:11:34;10.00;;;5.05;;
62844;SDS011;48929;47.910;20.390;2022-08-25T02:14:03;8.85;;;5.38;;
62844;SDS011;48929;47.910;20.390;2022-08-25T02:16:32;14.05;;;5.90;;
62844;SDS011;48929;47.910;20.390;2022-08-25T02:19:01;8.95;;;5.00;;
62844;SDS011;48929;47.910;20.390;2022-08-25T02:21:30;10.00;;;5.45;;
62844;SDS011;48929;47.910;20.390;2022-08-25T02:23:58;8.60;;;5.00;;
62844;SDS011;48929;47.910;20.390;2022-08-25T02:26:26;9.20;;;5.40;;
62844;SDS011;48929;47.910;20.390;2022-08-25T02:28:56;8.20;;;5.30;;
62844;SDS011;48929;47.910;20.390;2022-08-25T02:31:24;10.90;;;5.20;;
62844;SDS011;48929;47.910;20.390;2022-08-25T02:33:52;9.23;;;5.28;;
62844;SDS011;48929;47.910;20.390;2022-08-25T02:36:20;9.88;;;5.70;;
62844;SDS011;48929;47.910;20.390;2022-08-25T02:38:49;11.35;;;5.47;;
62844;SDS011;48929;47.910;20.390;2022-08-25T02:41:18;9.98;;;5.38;;
62844;SDS011;48929;47.910;20.390;2022-08-25T02:43:50;11.20;;;5.65;;
62844;SDS011;48929;47.910;20.390;2022-08-25T02:46:20;13.98;;;5.90;;
62844;SDS011;48929;47.910;20.390;2022-08-25T02:48:49;9.57;;;5.55;;
62844;SDS011;48929;47.910;20.390;2022-08-25T02:51:19;7.22;;;5.30;;
62844;SDS011;48929;47.910;20.390;2022-08-25T02:53:47;10.65;;;5.43;;
62844;SDS011;48929;47.910;20.390;2022-08-25T02:56:16;10.25;;;5.70;;
62844;SDS011;48929;47.910;20.390;2022-08-25T02:58:46;9.73;;;5.45;;
62844;SDS011;48929;47.910;20.390;2022-08-25T03:01:14;11.35;;;6.15;;
62844;SDS011;48929;47.910;20.390;2022-08-25T03:03:44;10.32;;;5.90;;
62844;SDS011;48929;47.910;20.390;2022-08-25T03:06:14;10.23;;;6.10;;
62844;SDS011;48929;47.910;20.390;2022-08-25T03:08:42;10.32;;;6.07;;
62844;SDS011;48929;47.910;20.390;2022-08-25T03:11:11;11.82;;;6.13;;
62844;SDS011;48929;47.910;20.390;2022-08-25T03:13:39;10.98;;;5.80;;
62844;SDS011;48929;47.910;20.390;2022-08-25T03:16:07;11.73;;;5.85;;
62844;SDS011;48929;47.910;20.390;2022-08-25T03:18:38;13.93;;;6.13;;
62844;SDS011;48929;47.910;20.390;2022-08-25T03:21:08;14.07;;;6.35;;
62844;SDS011;48929;47.910;20.390;2022-08-25T03:23:37;11.38;;;6.10;;
62844;SDS011;48929;47.910;20.390;2022-08-25T03:26:05;9.90;;;6.03;;
62844;SDS011;48929;47.910;20.390;2022-08-25T03:28:51;14.00;;;6.10;;
62844;SDS011;48929;47.910;20.390;2022-08-25T03:31:21;9.55;;;6.32;;
62844;SDS011;48929;47.910;20.390;2022-08-25T03:33:49;11.70;;;6.15;;
62844;SDS011;48929;47.910;20.390;2022-08-25T03:36:18;10.80;;;6.70;;
62844;SDS011;48929;47.910;20.390;2022-08-25T03:38:46;13.30;;;6.32;;
62844;SDS011;48929;47.910;20.390;2022-08-25T03:41:15;15.23;;;7.70;;
62844;SDS011;48929;47.910;20.390;2022-08-25T03:43:44;11.95;;;6.60;;
62844;SDS011;48929;47.910;20.390;2022-08-25T03:46:17;14.07;;;6.53;;
62844;SDS011;48929;47.910;20.390;2022-08-25T03:48:46;14.25;;;6.50;;
62844;SDS011;48929;47.910;20.390;2022-08-25T03:51:19;13.52;;;7.03;;
62844;SDS011;48929;47.910;20.390;2022-08-25T03:53:48;10.02;;;6.55;;
62844;SDS011;48929;47.910;20.390;2022-08-25T03:56:16;14.15;;;6.63;;
62844;SDS011;48929;47.910;20.390;2022-08-25T03:58:44;14.55;;;7.13;;
62844;SDS011;48929;47.910;20.390;2022-08-25T04:01:13;11.20;;;6.55;;
62844;SDS011;48929;47.910;20.390;2022-08-25T04:03:43;13.45;;;6.95;;
62844;SDS011;48929;47.910;20.390;2022-08-25T04:06:12;13.05;;;7.00;;
62844;SDS011;48929;47.910;20.390;2022-08-25T04:08:43;15.48;;;7.00;;
62844;SDS011;48929;47.910;20.390;2022-08-25T04:11:12;15.60;;;7.22;;
62844;SDS011;48929;47.910;20.390;2022-08-25T04:13:40;12.95;;;6.93;;
62844;SDS011;48929;47.910;20.390;2022-08-25T04:16:09;13.25;;;7.05;;
62844;SDS011;48929;47.910;20.390;2022-08-25T04:18:38;13.60;;;7.18;;
62844;SDS011;48929;47.910;20.390;2022-08-25T04:21:07;14.93;;;7.20;;
62844;SDS011;48929;47.910;20.390;2022-08-25T04:23:36;14.60;;;7.78;;
62844;SDS011;48929;47.910;20.390;2022-08-25T04:26:08;13.93;;;7.82;;
62844;SDS011;48929;47.910;20.390;2022-08-25T04:28:36;13.00;;;7.95;;
62844;SDS011;48929;47.910;20.390;2022-08-25T04:31:05;14.43;;;8.05;;
62844;SDS011;48929;47.910;20.390;2022-08-25T04:33:33;17.52;;;7.78;;
62844;SDS011;48929;47.910;20.390;2022-08-25T04:36:01;14.50;;;8.13;;
62844;SDS011;48929;47.910;20.390;2022-08-25T04:38:36;17.42;;;8.05;;
62844;SDS011;48929;47.910;20.390;2022-08-25T04:41:05;18.75;;;8.23;;
62844;SDS011;48929;47.910;20.390;2022-08-25T04:43:37;14.23;;;7.97;;
62844;SDS011;48929;47.910;20.390;2022-08-25T04:46:05;18.88;;;7.57;;
62844;SDS011;48929;47.910;20.390;2022-08-25T04:48:33;16.92;;;7.80;;
62844;SDS011;48929;47.910;20.390;2022-08-25T04:51:03;14.00;;;7.38;;
62844;SDS011;48929;47.910;20.390;2022-08-25T04:53:31;18.38;;;7.40;;
62844;SDS011;48929;47.910;20.390;2022-08-25T04:55:59;13.18;;;7.10;;
62844;SDS011;48929;47.910;20.390;2022-08-25T04:58:29;15.23;;;7.43;;
62844;SDS011;48929;47.910;20.390;2022-08-25T05:01:01;20.67;;;7.80;;
62844;SDS011;48929;47.910;20.390;2022-08-25T05:03:30;19.70;;;7.90;;
62844;SDS011;48929;47.910;20.390;2022-08-25T05:05:58;22.50;;;7.75;;
62844;SDS011;48929;47.910;20.390;2022-08-25T05:08:26;15.25;;;7.97;;
62844;SDS011;48929;47.910;20.390;2022-08-25T05:10:55;14.38;;;7.45;;
62844;SDS011;48929;47.910;20.390;2022-08-25T05:13:24;15.65;;;7.22;;
62844;SDS011;48929;47.910;20.390;2022-08-25T05:15:52;13.88;;;7.53;;
62844;SDS011;48929;47.910;20.390;2022-08-25T05:18:22;19.15;;;7.70;;
62844;SDS011;48929;47.910;20.390;2022-08-25T05:20:51;14.48;;;7.70;;
62844;SDS011;48929;47.910;20.390;2022-08-25T05:23:20;17.92;;;7.50;;
62844;SDS011;48929;47.910;20.390;2022-08-25T05:25:52;16.77;;;7.10;;
62844;SDS011;48929;47.910;20.390;2022-08-25T05:28:20;14.70;;;7.55;;
62844;SDS011;48929;47.910;20.390;2022-08-25T05:30:48;16.25;;;7.45;;
62844;SDS011;48929;47.910;20.390;2022-08-25T05:33:16;14.52;;;7.63;;
62844;SDS011;48929;47.910;20.390;2022-08-25T05:35:47;15.43;;;7.32;;
62844;SDS011;48929;47.910;20.390;2022-08-25T05:38:16;11.07;;;6.57;;
62844;SDS011;48929;47.910;20.390;2022-08-25T05:40:45;14.82;;;7.20;;
62844;SDS011;48929;47.910;20.390;2022-08-25T05:43:13;13.80;;;7.13;;
62844;SDS011;48929;47.910;20.390;2022-08-25T05:45:41;12.35;;;6.95;;
62844;SDS011;48929;47.910;20.390;2022-08-25T05:48:09;15.00;;;7.38;;
62844;SDS011;48929;47.910;20.390;2022-08-25T05:50:37;14.30;;;6.85;;
62844;SDS011;48929;47.910;20.390;2022-08-25T05:53:07;15.23;;;6.78;;
62844;SDS011;48929;47.910;20.390;2022-08-25T05:55:35;13.73;;;7.03;;
62844;SDS011;48929;47.910;20.390;2022-08-25T05:58:03;17.38;;;7.13;;
62844;SDS011;48929;47.910;20.390;2022-08-25T06:00:36;15.95;;;6.90;;
62844;SDS011;48929;47.910;20.390;2022-08-25T06:03:04;14.77;;;6.97;;
62844;SDS011;48929;47.910;20.390;2022-08-25T06:05:34;11.93;;;6.57;;
62844;SDS011;48929;47.910;20.390;2022-08-25T06:08:02;13.38;;;6.70;;
62844;SDS011;48929;47.910;20.390;2022-08-25T06:10:35;18.65;;;7.35;;
62844;SDS011;48929;47.910;20.390;2022-08-25T06:13:03;17.40;;;6.85;;
62844;SDS011;48929;47.910;20.390;2022-08-25T06:15:32;13.45;;;6.43;;
62844;SDS011;48929;47.910;20.390;2022-08-25T06:18:00;12.52;;;6.85;;
62844;SDS011;48929;47.910;20.390;2022-08-25T06:20:29;16.42;;;7.35;;
62844;SDS011;48929;47.910;20.390;2022-08-25T06:22:58;11.95;;;7.32;;
62844;SDS011;48929;47.910;20.390;2022-08-25T06:25:26;17.45;;;6.40;;
62844;SDS011;48929;47.910;20.390;2022-08-25T06:27:59;16.73;;;6.55;;
62844;SDS011;48929;47.910;20.390;2022-08-25T06:30:27;10.55;;;6.07;;
62844;SDS011;48929;47.910;20.390;2022-08-25T06:32:56;15.68;;;6.60;;
62844;SDS011;48929;47.910;20.390;2022-08-25T06:35:24;18.20;;;6.50;;
62844;SDS011;48929;47.910;20.390;2022-08-25T06:37:53;12.40;;;6.95;;
62844;SDS011;48929;47.910;20.390;2022-08-25T06:40:21;40.95;;;9.55;;
62844;SDS011;48929;47.910;20.390;2022-08-25T06:42:50;61.15;;;12.88;;
62844;SDS011;48929;47.910;20.390;2022-08-25T06:45:20;94.50;;;15.52;;
62844;SDS011;48929;47.910;20.390;2022-08-25T06:47:48;62.10;;;14.23;;
62844;SDS011;48929;47.910;20.390;2022-08-25T06:50:24;52.08;;;13.85;;
62844;SDS011;48929;47.910;20.390;2022-08-25T06:52:52;49.80;;;14.30;;
62844;SDS011;48929;47.910;20.390;2022-08-25T06:55:20;21.73;;;9.60;;
62844;SDS011;48929;47.910;20.390;2022-08-25T06:57:50;21.27;;;11.00;;
62844;SDS011;48929;47.910;20.390;2022-08-25T07:00:22;27.65;;;12.35;;
62844;SDS011;48929;47.910;20.390;2022-08-25T07:02:57;23.25;;;11.68;;
62844;SDS011;48929;47.910;20.390;2022-08-25T07:05:27;22.15;;;10.25;;
62844;SDS011;48929;47.910;20.390;2022-08-25T07:08:10;23.30;;;10.05;;
62844;SDS011;48929;47.910;20.390;2022-08-25T07:10:38;34.35;;;9.57;;
62844;SDS011;48929;47.910;20.390;2022-08-25T07:13:13;23.17;;;7.75;;
62844;SDS011;48929;47.910;20.390;2022-08-25T07:15:43;32.47;;;8.45;;
62844;SDS011;48929;47.910;20.390;2022-08-25T07:18:11;16.73;;;5.78;;
62844;SDS011;48929;47.910;20.390;2022-08-25T07:20:40;31.65;;;7.15;;
62844;SDS011;48929;47.910;20.390;2022-08-25T07:23:08;15.10;;;5.55;;
62844;SDS011;48929;47.910;20.390;2022-08-25T07:25:39;29.52;;;7.18;;
62844;SDS011;48929;47.910;20.390;2022-08-25T07:28:07;45.95;;;8.25;;
62844;SDS011;48929;47.910;20.390;2022-08-25T07:30:36;36.15;;;8.43;;
62844;SDS011;48929;47.910;20.390;2022-08-25T07:33:05;14.23;;;5.80;;
62844;SDS011;48929;47.910;20.390;2022-08-25T07:35:34;15.75;;;5.35;;
62844;SDS011;48929;47.910;20.390;2022-08-25T07:38:04;17.15;;;5.25;;
62844;SDS011;48929;47.910;20.390;2022-08-25T07:40:38;15.95;;;5.40;;
62844;SDS011;48929;47.910;20.390;2022-08-25T07:43:08;60.42;;;10.18;;
62844;SDS011;48929;47.910;20.390;2022-08-25T07:45:38;44.10;;;8.52;;
62844;SDS011;48929;47.910;20.390;2022-08-25T07:48:27;26.95;;;7.28;;
62844;SDS011;48929;47.910;20.390;2022-08-25T07:50:56;14.63;;;6.07;;
62844;SDS011;48929;47.910;20.390;2022-08-25T07:53:28;13.02;;;5.55;;
62844;SDS011;48929;47.910;20.390;2022-08-25T07:55:57;17.85;;;6.35;;
62844;SDS011;48929;47.910;20.390;2022-08-25T07:58:26;18.48;;;5.45;;
62844;SDS011;48929;47.910;20.390;2022-08-25T08:00:54;41.42;;;8.35;;
62844;SDS011;48929;47.910;20.390;2022-08-25T08:03:22;20.10;;;6.57;;
62844;SDS011;48929;47.910;20.390;2022-08-25T08:06:13;16.58;;;5.20;;
62844;SDS011;48929;47.910;20.390;2022-08-25T08:08:43;14.10;;;4.97;;
62844;SDS011;48929;47.910;20.390;2022-08-25T08:11:13;14.18;;;5.38;;
62844;SDS011;48929;47.910;20.390;2022-08-25T08:13:41;16.08;;;5.25;;
62844;SDS011;48929;47.910;20.390;2022-08-25T08:16:09;16.40;;;5.05;;
62844;SDS011;48929;47.910;20.390;2022-08-25T08:18:38;9.63;;;4.43;;
62844;SDS011;48929;47.910;20.390;2022-08-25T08:21:10;13.13;;;5.03;;
62844;SDS011;48929;47.910;20.390;2022-08-25T08:23:46;24.30;;;6.72;;
62844;SDS011;48929;47.910;20.390;2022-08-25T08:26:15;36.58;;;7.82;;
62844;SDS011;48929;47.910;20.390;2022-08-25T08:28:43;15.50;;;5.20;;
62844;SDS011;48929;47.910;20.390;2022-08-25T08:31:17;43.38;;;8.98;;
62844;SDS011;48929;47.910;20.390;2022-08-25T08:33:47;57.47;;;10.43;;
62844;SDS011;48929;47.910;20.390;2022-08-25T08:36:15;17.70;;;6.22;;
62844;SDS011;48929;47.910;20.390;2022-08-25T08:38:45;26.10;;;6.93;;
62844;SDS011;48929;47.910;20.390;2022-08-25T08:41:19;45.17;;;7.95;;
62844;SDS011;48929;47.910;20.390;2022-08-25T08:44:27;12.45;;;4.68;;
62844;SDS011;48929;47.910;20.390;2022-08-25T08:47:02;13.02;;;4.97;;
62844;SDS011;48929;47.910;20.390;2022-08-25T08:49:36;13.15;;;4.40;;
62844;SDS011;48929;47.910;20.390;2022-08-25T08:52:09;14.23;;;4.30;;
62844;SDS011;48929;47.910;20.390;2022-08-25T08:54:39;10.38;;;4.57;;
62844;SDS011;48929;47.910;20.390;2022-08-25T08:57:10;8.57;;;4.65;;
62844;SDS011;48929;47.910;20.390;2022-08-25T08:59:40;11.63;;;4.63;;
62844;SDS011;48929;47.910;20.390;2022-08-25T09:02:17;12.60;;;4.65;;
62844;SDS011;48929;47.910;20.390;2022-08-25T09:05:06;12.82;;;4.60;;
62844;SDS011;48929;47.910;20.390;2022-08-25T09:07:36;12.57;;;4.05;;
62844;SDS011;48929;47.910;20.390;2022-08-25T09:10:09;16.17;;;4.75;;
62844;SDS011;48929;47.910;20.390;2022-08-25T09:12:38;13.43;;;4.60;;
62844;SDS011;48929;47.910;20.390;2022-08-25T09:15:16;16.42;;;4.43;;
62844;SDS011;48929;47.910;20.390;2022-08-25T09:17:55;23.10;;;5.40;;
62844;SDS011;48929;47.910;20.390;2022-08-25T09:20:31;14.27;;;4.45;;
62844;SDS011;48929;47.910;20.390;2022-08-25T09:23:02;9.45;;;4.10;;
62844;SDS011;48929;47.910;20.390;2022-08-25T09:25:42;14.45;;;4.68;;
62844;SDS011;48929;47.910;20.390;2022-08-25T09:28:20;10.85;;;4.65;;
62844;SDS011;48929;47.910;20.390;2022-08-25T09:30:50;10.55;;;4.43;;
62844;SDS011;48929;47.910;20.390;2022-08-25T09:33:21;18.20;;;4.82;;
62844;SDS011;48929;47.910;20.390;2022-08-25T09:35:50;14.43;;;4.40;;
62844;SDS011;48929;47.910;20.390;2022-08-25T09:38:19;15.82;;;4.30;;
62844;SDS011;48929;47.910;20.390;2022-08-25T09:40:50;13.27;;;4.13;;
62844;SDS011;48929;47.910;20.390;2022-08-25T09:43:20;10.10;;;4.13;;
62844;SDS011;48929;47.910;20.390;2022-08-25T09:45:49;12.30;;;3.85;;
62844;SDS011;48929;47.910;20.390;2022-08-25T09:48:25;9.32;;;3.72;;
62844;SDS011;48929;47.910;20.390;2022-08-25T09:50:56;12.38;;;3.95;;
62844;SDS011;48929;47.910;20.390;2022-08-25T09:53:25;12.52;;;3.80;;
62844;SDS011;48929;47.910;20.390;2022-08-25T09:56:03;15.45;;;3.75;;
62844;SDS011;48929;47.910;20.390;2022-08-25T09:58:34;11.18;;;3.97;;
62844;SDS011;48929;47.910;20.390;2022-08-25T10:01:04;11.15;;;3.75;;
62844;SDS011;48929;47.910;20.390;2022-08-25T10:03:32;14.93;;;3.42;;
62844;SDS011;48929;47.910;20.390;2022-08-25T10:06:03;9.35;;;3.35;;
62844;SDS011;48929;47.910;20.390;2022-08-25T10:08:33;7.57;;;3.33;;
62844;SDS011;48929;47.910;20.390;2022-08-25T10:11:05;11.20;;;3.70;;
62844;SDS011;48929;47.910;20.390;2022-08-25T10:13:36;9.10;;;3.42;;
62844;SDS011;48929;47.910;20.390;2022-08-25T10:16:06;11.35;;;3.38;;
62844;SDS011;48929;47.910;20.390;2022-08-25T10:19:05;10.57;;;3.38;;
62844;SDS011;48929;47.910;20.390;2022-08-25T10:21:34;11.43;;;3.60;;
62844;SDS011;48929;47.910;20.390;2022-08-25T10:24:05;9.48;;;3.50;;
62844;SDS011;48929;47.910;20.390;2022-08-25T10:26:39;12.90;;;3.60;;
62844;SDS011;48929;47.910;20.390;2022-08-25T10:29:17;12.07;;;4.10;;
62844;SDS011;48929;47.910;20.390;2022-08-25T10:31:50;12.48;;;3.70;;
62844;SDS011;48929;47.910;20.390;2022-08-25T10:34:24;9.38;;;3.70;;
62844;SDS011;48929;47.910;20.390;2022-08-25T10:36:58;10.00;;;3.47;;
62844;SDS011;48929;47.910;20.390;2022-08-25T10:39:32;8.57;;;3.30;;
62844;SDS011;48929;47.910;20.390;2022-08-25T10:42:15;8.95;;;3.63;;
62844;SDS011;48929;47.910;20.390;2022-08-25T10:44:55;10.13;;;3.25;;
62844;SDS011;48929;47.910;20.390;2022-08-25T10:47:55;8.68;;;3.50;;
62844;SDS011;48929;47.910;20.390;2022-08-25T10:50:28;8.27;;;3.25;;
62844;SDS011;48929;47.910;20.390;2022-08-25T10:53:03;10.18;;;3.25;;
62844;SDS011;48929;47.910;20.390;2022-08-25T10:55:38;11.13;;;3.40;;
62844;SDS011;48929;47.910;20.390;2022-08-25T10:58:12;11.07;;;3.25;;
62844;SDS011;48929;47.910;20.390;2022-08-25T11:00:51;12.38;;;3.33;;
62844;SDS011;48929;47.910;20.390;2022-08-25T11:03:29;8.20;;;3.55;;
62844;SDS011;48929;47.910;20.390;2022-08-25T11:06:02;12.32;;;3.30;;
62844;SDS011;48929;47.910;20.390;2022-08-25T11:08:35;8.20;;;3.20;;
62844;SDS011;48929;47.910;20.390;2022-08-25T11:11:05;8.75;;;3.40;;
62844;SDS011;48929;47.910;20.390;2022-08-25T11:13:40;9.50;;;3.53;;
62844;SDS011;48929;47.910;20.390;2022-08-25T11:16:09;7.88;;;3.13;;
62844;SDS011;48929;47.910;20.390;2022-08-25T11:18:45;8.05;;;3.10;;
62844;SDS011;48929;47.910;20.390;2022-08-25T11:21:17;8.90;;;3.20;;
62844;SDS011;48929;47.910;20.390;2022-08-25T11:23:49;10.20;;;3.50;;
62844;SDS011;48929;47.910;20.390;2022-08-25T11:26:21;10.13;;;3.13;;
62844;SDS011;48929;47.910;20.390;2022-08-25T11:29:02;8.95;;;3.10;;
62844;SDS011;48929;47.910;20.390;2022-08-25T11:31:38;10.90;;;3.08;;
62844;SDS011;48929;47.910;20.390;2022-08-25T11:34:07;7.07;;;3.05;;
62844;SDS011;48929;47.910;20.390;2022-08-25T11:36:37;7.90;;;3.03;;
62844;SDS011;48929;47.910;20.390;2022-08-25T11:39:10;11.07;;;3.50;;
62844;SDS011;48929;47.910;20.390;2022-08-25T11:41:40;10.23;;;3.47;;
62844;SDS011;48929;47.910;20.390;2022-08-25T11:44:18;7.47;;;3.40;;
62844;SDS011;48929;47.910;20.390;2022-08-25T11:46:56;10.82;;;3.35;;
62844;SDS011;48929;47.910;20.390;2022-08-25T11:49:44;7.22;;;3.20;;
62844;SDS011;48929;47.910;20.390;2022-08-25T11:55:04;10.32;;;3.45;;
62844;SDS011;48929;47.910;20.390;2022-08-25T11:57:35;10.80;;;2.90;;
62844;SDS011;48929;47.910;20.390;2022-08-25T12:00:06;8.65;;;3.33;;
62844;SDS011;48929;47.910;20.390;2022-08-25T12:02:38;12.85;;;3.58;;
62844;SDS011;48929;47.910;20.390;2022-08-25T12:05:11;9.93;;;3.10;;
62844;SDS011;48929;47.910;20.390;2022-08-25T12:08:00;9.20;;;3.47;;
62844;SDS011;48929;47.910;20.390;2022-08-25T12:10:56;11.02;;;3.40;;
62844;SDS011;48929;47.910;20.390;2022-08-25T12:13:26;10.35;;;3.40;;
62844;SDS011;48929;47.910;20.390;2022-08-25T12:16:06;17.92;;;3.78;;
62844;SDS011;48929;47.910;20.390;2022-08-25T12:18:39;12.75;;;3.65;;
62844;SDS011;48929;47.910;20.390;2022-08-25T12:21:16;9.90;;;3.67;;
62844;SDS011;48929;47.910;20.390;2022-08-25T12:24:09;7.82;;;3.50;;
62844;SDS011;48929;47.910;20.390;2022-08-25T12:26:41;10.25;;;3.78;;
62844;SDS011;48929;47.910;20.390;2022-08-25T12:29:13;9.07;;;3.33;;
62844;SDS011;48929;47.910;20.390;2022-08-25T12:34:40;7.88;;;3.53;;
62844;SDS011;48929;47.910;20.390;2022-08-25T12:37:11;14.57;;;3.58;;
62844;SDS011;48929;47.910;20.390;2022-08-25T12:39:43;12.98;;;3.75;;
62844;SDS011;48929;47.910;20.390;2022-08-25T12:42:20;12.95;;;3.55;;
62844;SDS011;48929;47.910;20.390;2022-08-25T12:45:07;14.90;;;3.50;;
62844;SDS011;48929;47.910;20.390;2022-08-25T12:47:35;10.02;;;4.18;;
62844;SDS011;48929;47.910;20.390;2022-08-25T12:50:34;9.27;;;3.88;;
62844;SDS011;48929;47.910;20.390;2022-08-25T12:53:10;9.32;;;3.47;;
62844;SDS011;48929;47.910;20.390;2022-08-25T12:55:41;13.90;;;3.75;;
62844;SDS011;48929;47.910;20.390;2022-08-25T12:58:10;9.32;;;4.05;;
62844;SDS011;48929;47.910;20.390;2022-08-25T13:00:48;10.75;;;3.67;;
62844;SDS011;48929;47.910;20.390;2022-08-25T13:14:37;12.55;;;4.00;;
62844;SDS011;48929;47.910;20.390;2022-08-25T13:17:06;11.68;;;3.97;;
62844;SDS011;48929;47.910;20.390;2022-08-25T13:19:35;14.32;;;3.80;;
62844;SDS011;48929;47.910;20.390;2022-08-25T13:22:09;11.27;;;3.90;;
62844;SDS011;48929;47.910;20.390;2022-08-25T13:24:42;8.82;;;4.10;;
62844;SDS011;48929;47.910;20.390;2022-08-25T13:27:17;10.98;;;4.28;;
62844;SDS011;48929;47.910;20.390;2022-08-25T13:29:50;10.85;;;4.15;;
62844;SDS011;48929;47.910;20.390;2022-08-25T13:32:24;9.73;;;3.50;;
62844;SDS011;48929;47.910;20.390;2022-08-25T13:35:07;9.10;;;3.72;;
62844;SDS011;48929;47.910;20.390;2022-08-25T13:37:39;8.52;;;3.65;;
62844;SDS011;48929;47.910;20.390;2022-08-25T13:40:10;13.38;;;3.88;;
62844;SDS011;48929;47.910;20.390;2022-08-25T13:42:40;9.80;;;3.72;;
62844;SDS011;48929;47.910;20.390;2022-08-25T13:45:18;11.25;;;3.88;;
62844;SDS011;48929;47.910;20.390;2022-08-25T13:47:49;10.43;;;3.65;;
62844;SDS011;48929;47.910;20.390;2022-08-25T13:50:39;14.90;;;3.75;;
62844;SDS011;48929;47.910;20.390;2022-08-25T13:53:09;9.80;;;3.78;;
62844;SDS011;48929;47.910;20.390;2022-08-25T13:55:46;10.98;;;3.75;;
62844;SDS011;48929;47.910;20.390;2022-08-25T13:58:18;11.10;;;3.58;;
62844;SDS011;48929;47.910;20.390;2022-08-25T14:01:00;10.52;;;3.60;;
62844;SDS011;48929;47.910;20.390;2022-08-25T14:03:50;9.85;;;3.30;;
62844;SDS011;48929;47.910;20.390;2022-08-25T14:06:19;9.15;;;3.55;;
62844;SDS011;48929;47.910;20.390;2022-08-25T14:09:03;11.80;;;4.18;;
62844;SDS011;48929;47.910;20.390;2022-08-25T14:11:32;14.65;;;3.95;;
62844;SDS011;48929;47.910;20.390;2022-08-25T14:14:01;11.65;;;3.97;;
62844;SDS011;48929;47.910;20.390;2022-08-25T14:16:32;9.98;;;3.55;;
62844;SDS011;48929;47.910;20.390;2022-08-25T14:19:11;9.38;;;3.60;;
62844;SDS011;48929;47.910;20.390;2022-08-25T14:21:45;8.07;;;3.45;;
62844;SDS011;48929;47.910;20.390;2022-08-25T14:24:19;12.63;;;3.88;;
62844;SDS011;48929;47.910;20.390;2022-08-25T14:26:48;7.55;;;3.65;;
62844;SDS011;48929;47.910;20.390;2022-08-25T14:29:20;9.73;;;3.92;;
62844;SDS011;48929;47.910;20.390;2022-08-25T14:31:50;12.05;;;3.50;;
62844;SDS011;48929;47.910;20.390;2022-08-25T14:34:19;9.18;;;3.70;;
62844;SDS011;48929;47.910;20.390;2022-08-25T14:36:49;10.23;;;3.70;;
62844;SDS011;48929;47.910;20.390;2022-08-25T14:39:17;12.63;;;4.00;;
62844;SDS011;48929;47.910;20.390;2022-08-25T14:41:46;8.13;;;3.50;;
62844;SDS011;48929;47.910;20.390;2022-08-25T14:44:19;7.55;;;3.55;;
62844;SDS011;48929;47.910;20.390;2022-08-25T14:46:48;9.30;;;4.05;;
62844;SDS011;48929;47.910;20.390;2022-08-25T14:49:21;10.35;;;3.70;;
62844;SDS011;48929;47.910;20.390;2022-08-25T14:51:51;11.25;;;3.80;;
62844;SDS011;48929;47.910;20.390;2022-08-25T14:54:21;9.93;;;3.92;;
62844;SDS011;48929;47.910;20.390;2022-08-25T14:56:51;10.27;;;3.60;;
62844;SDS011;48929;47.910;20.390;2022-08-25T14:59:19;12.95;;;3.85;;
62844;SDS011;48929;47.910;20.390;2022-08-25T15:01:47;10.20;;;3.45;;
62844;SDS011;48929;47.910;20.390;2022-08-25T15:04:16;9.57;;;3.60;;
62844;SDS011;48929;47.910;20.390;2022-08-25T15:06:47;12.02;;;4.10;;
62844;SDS011;48929;47.910;20.390;2022-08-25T15:09:17;11.40;;;3.58;;